Terminal Aerodrome Forecast
Issued by NWS Bismarck, ND

Home | Current Version | Previous Version | Graphics & Text | Print | Product List | Glossary On
Versions: 1 2 3 4 5 6 7 8 9 10 11 12 13 14 15 16 17 18
000
FTUS43 KBIS 251900 AAA
TAFBIS
TAF AMD
KBIS 251951Z 2520/2618 31012KT P6SM SKC
     FM260200 24005KT P6SM SKC
     FM261500 29015KT P6SM SCT035 SCT070=

USA.gov is the U.S. government's official web portal to all federal, state and local government web resources and services.